sensor_id;sensor_type;location;lat;lon;timestamp;P1;durP1;ratioP1;P2;durP2;ratioP2
49139;SDS011;34959;49.310;8.646;2023-01-31T00:01:34;5.07;;;1.13;;
49139;SDS011;34959;49.310;8.646;2023-01-31T00:04:03;4.68;;;1.42;;
49139;SDS011;34959;49.310;8.646;2023-01-31T00:06:31;5.72;;;1.40;;
49139;SDS011;34959;49.310;8.646;2023-01-31T00:08:58;2.40;;;1.20;;
49139;SDS011;34959;49.310;8.646;2023-01-31T00:11:24;5.68;;;1.20;;
49139;SDS011;34959;49.310;8.646;2023-01-31T00:13:51;6.30;;;1.65;;
49139;SDS011;34959;49.310;8.646;2023-01-31T00:16:18;8.05;;;1.25;;
49139;SDS011;34959;49.310;8.646;2023-01-31T00:18:43;5.43;;;1.40;;
49139;SDS011;34959;49.310;8.646;2023-01-31T00:21:10;6.18;;;1.50;;
49139;SDS011;34959;49.310;8.646;2023-01-31T00:23:36;3.53;;;1.35;;
49139;SDS011;34959;49.310;8.646;2023-01-31T00:26:06;3.13;;;1.33;;
49139;SDS011;34959;49.310;8.646;2023-01-31T00:28:35;3.30;;;1.13;;
49139;SDS011;34959;49.310;8.646;2023-01-31T00:31:00;6.43;;;1.80;;
49139;SDS011;34959;49.310;8.646;2023-01-31T00:33:25;6.30;;;1.20;;
49139;SDS011;34959;49.310;8.646;2023-01-31T00:35:51;5.55;;;1.33;;
49139;SDS011;34959;49.310;8.646;2023-01-31T00:38:16;3.55;;;0.90;;
49139;SDS011;34959;49.310;8.646;2023-01-31T00:40:41;3.97;;;1.10;;
49139;SDS011;34959;49.310;8.646;2023-01-31T00:43:07;2.88;;;1.30;;
49139;SDS011;34959;49.310;8.646;2023-01-31T00:45:32;5.10;;;1.40;;
49139;SDS011;34959;49.310;8.646;2023-01-31T00:47:58;3.50;;;1.33;;
49139;SDS011;34959;49.310;8.646;2023-01-31T00:50:23;2.17;;;1.02;;
49139;SDS011;34959;49.310;8.646;2023-01-31T00:52:49;3.65;;;1.20;;
49139;SDS011;34959;49.310;8.646;2023-01-31T00:55:15;2.95;;;1.25;;
49139;SDS011;34959;49.310;8.646;2023-01-31T00:57:40;6.68;;;1.30;;
49139;SDS011;34959;49.310;8.646;2023-01-31T01:00:06;1.25;;;0.73;;
49139;SDS011;34959;49.310;8.646;2023-01-31T01:02:32;1.63;;;1.00;;
49139;SDS011;34959;49.310;8.646;2023-01-31T01:04:57;1.88;;;0.85;;
49139;SDS011;34959;49.310;8.646;2023-01-31T01:07:23;2.78;;;0.90;;
49139;SDS011;34959;49.310;8.646;2023-01-31T01:09:48;3.67;;;0.90;;
49139;SDS011;34959;49.310;8.646;2023-01-31T01:12:14;2.55;;;0.88;;
49139;SDS011;34959;49.310;8.646;2023-01-31T01:14:39;1.75;;;0.68;;
49139;SDS011;34959;49.310;8.646;2023-01-31T01:17:04;1.77;;;0.70;;
49139;SDS011;34959;49.310;8.646;2023-01-31T01:19:30;2.88;;;0.90;;
49139;SDS011;34959;49.310;8.646;2023-01-31T01:21:55;2.88;;;0.90;;
49139;SDS011;34959;49.310;8.646;2023-01-31T01:24:21;3.60;;;0.85;;
49139;SDS011;34959;49.310;8.646;2023-01-31T01:26:46;1.88;;;0.70;;
49139;SDS011;34959;49.310;8.646;2023-01-31T01:29:12;0.98;;;0.50;;
49139;SDS011;34959;49.310;8.646;2023-01-31T01:31:37;1.60;;;0.70;;
49139;SDS011;34959;49.310;8.646;2023-01-31T01:34:07;2.92;;;0.70;;
49139;SDS011;34959;49.310;8.646;2023-01-31T01:36:36;2.83;;;0.60;;
49139;SDS011;34959;49.310;8.646;2023-01-31T01:39:03;0.90;;;0.60;;
49139;SDS011;34959;49.310;8.646;2023-01-31T01:41:30;1.30;;;0.63;;
49139;SDS011;34959;49.310;8.646;2023-01-31T01:43:58;1.48;;;0.70;;
49139;SDS011;34959;49.310;8.646;2023-01-31T01:46:40;1.48;;;0.68;;
49139;SDS011;34959;49.310;8.646;2023-01-31T01:51:44;7.32;;;0.70;;
49139;SDS011;34959;49.310;8.646;2023-01-31T01:54:12;1.55;;;0.60;;
49139;SDS011;34959;49.310;8.646;2023-01-31T01:56:49;2.03;;;0.93;;
49139;SDS011;34959;49.310;8.646;2023-01-31T01:59:21;5.60;;;0.90;;
49139;SDS011;34959;49.310;8.646;2023-01-31T02:01:50;2.47;;;0.93;;
49139;SDS011;34959;49.310;8.646;2023-01-31T02:04:16;4.28;;;0.55;;
49139;SDS011;34959;49.310;8.646;2023-01-31T02:06:45;1.52;;;0.80;;
49139;SDS011;34959;49.310;8.646;2023-01-31T02:09:14;1.55;;;0.80;;
49139;SDS011;34959;49.310;8.646;2023-01-31T02:11:44;2.28;;;0.70;;
49139;SDS011;34959;49.310;8.646;2023-01-31T02:14:10;2.95;;;1.00;;
49139;SDS011;34959;49.310;8.646;2023-01-31T02:16:36;3.25;;;0.88;;
49139;SDS011;34959;49.310;8.646;2023-01-31T02:19:02;2.72;;;0.70;;
49139;SDS011;34959;49.310;8.646;2023-01-31T02:22:06;2.30;;;0.80;;
49139;SDS011;34959;49.310;8.646;2023-01-31T02:29:53;1.23;;;0.70;;
49139;SDS011;34959;49.310;8.646;2023-01-31T02:35:18;2.67;;;0.88;;
49139;SDS011;34959;49.310;8.646;2023-01-31T02:40:43;1.63;;;1.00;;
49139;SDS011;34959;49.310;8.646;2023-01-31T02:45:50;1.75;;;0.90;;
49139;SDS011;34959;49.310;8.646;2023-01-31T02:53:23;2.75;;;0.93;;
49139;SDS011;34959;49.310;8.646;2023-01-31T02:55:58;2.42;;;0.80;;
49139;SDS011;34959;49.310;8.646;2023-01-31T02:59:27;4.43;;;1.00;;
49139;SDS011;34959;49.310;8.646;2023-01-31T03:01:32;1.90;;;1.00;;
49139;SDS011;34959;49.310;8.646;2023-01-31T03:04:04;1.63;;;0.70;;
49139;SDS011;34959;49.310;8.646;2023-01-31T03:09:07;1.20;;;0.60;;
49139;SDS011;34959;49.310;8.646;2023-01-31T03:14:41;2.58;;;0.82;;
49139;SDS011;34959;49.310;8.646;2023-01-31T03:17:13;6.40;;;1.10;;
49139;SDS011;34959;49.310;8.646;2023-01-31T03:20:04;3.13;;;1.02;;
49139;SDS011;34959;49.310;8.646;2023-01-31T03:22:42;3.88;;;1.27;;
49139;SDS011;34959;49.310;8.646;2023-01-31T03:25:11;1.65;;;0.80;;
49139;SDS011;34959;49.310;8.646;2023-01-31T03:27:38;2.85;;;0.90;;
49139;SDS011;34959;49.310;8.646;2023-01-31T03:30:07;1.95;;;1.00;;
49139;SDS011;34959;49.310;8.646;2023-01-31T03:32:38;2.03;;;1.13;;
49139;SDS011;34959;49.310;8.646;2023-01-31T03:35:07;2.45;;;1.02;;
49139;SDS011;34959;49.310;8.646;2023-01-31T03:37:36;1.92;;;0.80;;
49139;SDS011;34959;49.310;8.646;2023-01-31T03:40:08;1.85;;;0.93;;
49139;SDS011;34959;49.310;8.646;2023-01-31T03:42:41;2.78;;;1.10;;
49139;SDS011;34959;49.310;8.646;2023-01-31T03:45:20;5.70;;;1.02;;
49139;SDS011;34959;49.310;8.646;2023-01-31T03:47:50;4.07;;;1.40;;
49139;SDS011;34959;49.310;8.646;2023-01-31T03:50:18;3.35;;;1.10;;
49139;SDS011;34959;49.310;8.646;2023-01-31T03:56:03;3.78;;;1.10;;
49139;SDS011;34959;49.310;8.646;2023-01-31T03:58:40;5.50;;;1.00;;
49139;SDS011;34959;49.310;8.646;2023-01-31T04:01:09;1.92;;;1.15;;
49139;SDS011;34959;49.310;8.646;2023-01-31T04:06:05;3.67;;;1.25;;
49139;SDS011;34959;49.310;8.646;2023-01-31T04:08:31;2.35;;;0.80;;
49139;SDS011;34959;49.310;8.646;2023-01-31T04:10:57;2.35;;;1.02;;
49139;SDS011;34959;49.310;8.646;2023-01-31T04:13:23;2.40;;;1.02;;
49139;SDS011;34959;49.310;8.646;2023-01-31T04:15:49;3.13;;;1.08;;
49139;SDS011;34959;49.310;8.646;2023-01-31T04:18:14;2.58;;;1.15;;
49139;SDS011;34959;49.310;8.646;2023-01-31T04:20:40;1.60;;;0.85;;
49139;SDS011;34959;49.310;8.646;2023-01-31T04:23:05;2.30;;;1.17;;
49139;SDS011;34959;49.310;8.646;2023-01-31T04:25:30;1.70;;;0.95;;
49139;SDS011;34959;49.310;8.646;2023-01-31T04:27:56;1.92;;;1.00;;
49139;SDS011;34959;49.310;8.646;2023-01-31T04:30:21;1.25;;;0.70;;
49139;SDS011;34959;49.310;8.646;2023-01-31T04:32:47;1.88;;;0.98;;
49139;SDS011;34959;49.310;8.646;2023-01-31T04:35:12;2.35;;;1.20;;
49139;SDS011;34959;49.310;8.646;2023-01-31T04:37:38;1.52;;;0.88;;
49139;SDS011;34959;49.310;8.646;2023-01-31T04:40:03;2.65;;;1.10;;
49139;SDS011;34959;49.310;8.646;2023-01-31T04:42:29;1.52;;;1.10;;
49139;SDS011;34959;49.310;8.646;2023-01-31T04:44:55;1.58;;;1.00;;
49139;SDS011;34959;49.310;8.646;2023-01-31T04:47:20;2.90;;;0.95;;
49139;SDS011;34959;49.310;8.646;2023-01-31T04:49:46;2.30;;;1.10;;
49139;SDS011;34959;49.310;8.646;2023-01-31T04:52:11;1.95;;;0.90;;
49139;SDS011;34959;49.310;8.646;2023-01-31T04:54:36;1.20;;;0.88;;
49139;SDS011;34959;49.310;8.646;2023-01-31T04:57:02;4.43;;;1.52;;
49139;SDS011;34959;49.310;8.646;2023-01-31T04:59:27;2.00;;;1.00;;
49139;SDS011;34959;49.310;8.646;2023-01-31T05:01:53;2.88;;;1.30;;
49139;SDS011;34959;49.310;8.646;2023-01-31T05:04:18;3.40;;;1.35;;
49139;SDS011;34959;49.310;8.646;2023-01-31T05:06:46;2.92;;;1.00;;
49139;SDS011;34959;49.310;8.646;2023-01-31T05:09:11;2.33;;;1.00;;
49139;SDS011;34959;49.310;8.646;2023-01-31T05:11:37;2.63;;;1.00;;
49139;SDS011;34959;49.310;8.646;2023-01-31T05:14:02;2.17;;;1.00;;
49139;SDS011;34959;49.310;8.646;2023-01-31T05:16:28;1.73;;;1.08;;
49139;SDS011;34959;49.310;8.646;2023-01-31T05:18:53;3.63;;;1.23;;
49139;SDS011;34959;49.310;8.646;2023-01-31T05:21:18;2.85;;;1.25;;
49139;SDS011;34959;49.310;8.646;2023-01-31T05:23:44;2.17;;;1.10;;
49139;SDS011;34959;49.310;8.646;2023-01-31T05:26:09;2.00;;;1.13;;
49139;SDS011;34959;49.310;8.646;2023-01-31T05:28:35;5.53;;;1.20;;
49139;SDS011;34959;49.310;8.646;2023-01-31T05:31:01;1.88;;;1.02;;
49139;SDS011;34959;49.310;8.646;2023-01-31T05:33:28;1.75;;;0.93;;
49139;SDS011;34959;49.310;8.646;2023-01-31T05:35:56;2.25;;;1.10;;
49139;SDS011;34959;49.310;8.646;2023-01-31T05:38:21;2.28;;;1.00;;
49139;SDS011;34959;49.310;8.646;2023-01-31T05:40:48;2.38;;;1.10;;
49139;SDS011;34959;49.310;8.646;2023-01-31T05:43:14;1.55;;;0.95;;
49139;SDS011;34959;49.310;8.646;2023-01-31T05:45:39;1.65;;;0.90;;
49139;SDS011;34959;49.310;8.646;2023-01-31T05:48:05;2.35;;;1.15;;
49139;SDS011;34959;49.310;8.646;2023-01-31T05:50:30;2.20;;;0.93;;
49139;SDS011;34959;49.310;8.646;2023-01-31T05:52:59;2.47;;;1.10;;
49139;SDS011;34959;49.310;8.646;2023-01-31T05:55:25;2.05;;;1.10;;
49139;SDS011;34959;49.310;8.646;2023-01-31T05:57:51;2.63;;;1.10;;
49139;SDS011;34959;49.310;8.646;2023-01-31T06:00:17;2.95;;;1.00;;
49139;SDS011;34959;49.310;8.646;2023-01-31T06:02:43;2.97;;;1.20;;
49139;SDS011;34959;49.310;8.646;2023-01-31T06:05:09;2.75;;;1.00;;
49139;SDS011;34959;49.310;8.646;2023-01-31T06:07:35;1.73;;;1.00;;
49139;SDS011;34959;49.310;8.646;2023-01-31T06:10:02;2.05;;;1.10;;
49139;SDS011;34959;49.310;8.646;2023-01-31T06:12:28;2.30;;;1.42;;
49139;SDS011;34959;49.310;8.646;2023-01-31T06:14:53;2.08;;;1.20;;
49139;SDS011;34959;49.310;8.646;2023-01-31T06:17:19;2.40;;;1.23;;
49139;SDS011;34959;49.310;8.646;2023-01-31T06:19:44;2.88;;;1.10;;
49139;SDS011;34959;49.310;8.646;2023-01-31T06:22:10;1.83;;;1.15;;
49139;SDS011;34959;49.310;8.646;2023-01-31T06:24:35;2.58;;;1.23;;
49139;SDS011;34959;49.310;8.646;2023-01-31T06:27:01;2.42;;;1.13;;
49139;SDS011;34959;49.310;8.646;2023-01-31T06:29:26;2.08;;;1.10;;
49139;SDS011;34959;49.310;8.646;2023-01-31T06:31:51;3.75;;;1.23;;
49139;SDS011;34959;49.310;8.646;2023-01-31T06:34:18;2.35;;;1.20;;
49139;SDS011;34959;49.310;8.646;2023-01-31T06:36:44;2.20;;;1.23;;
49139;SDS011;34959;49.310;8.646;2023-01-31T06:39:11;2.97;;;1.13;;
49139;SDS011;34959;49.310;8.646;2023-01-31T06:41:37;3.78;;;1.30;;
49139;SDS011;34959;49.310;8.646;2023-01-31T06:44:02;1.92;;;1.20;;
49139;SDS011;34959;49.310;8.646;2023-01-31T06:46:27;1.50;;;0.95;;
49139;SDS011;34959;49.310;8.646;2023-01-31T06:48:53;2.08;;;1.13;;
49139;SDS011;34959;49.310;8.646;2023-01-31T06:51:19;4.05;;;1.30;;
49139;SDS011;34959;49.310;8.646;2023-01-31T06:53:44;1.63;;;1.10;;
49139;SDS011;34959;49.310;8.646;2023-01-31T06:56:10;2.42;;;1.20;;
49139;SDS011;34959;49.310;8.646;2023-01-31T06:58:35;2.30;;;1.13;;
49139;SDS011;34959;49.310;8.646;2023-01-31T07:01:10;2.88;;;1.42;;
49139;SDS011;34959;49.310;8.646;2023-01-31T07:03:37;2.95;;;1.10;;
49139;SDS011;34959;49.310;8.646;2023-01-31T07:06:03;1.85;;;1.15;;
49139;SDS011;34959;49.310;8.646;2023-01-31T07:08:29;3.08;;;1.35;;
49139;SDS011;34959;49.310;8.646;2023-01-31T07:10:56;3.42;;;1.50;;
49139;SDS011;34959;49.310;8.646;2023-01-31T07:13:21;2.47;;;1.20;;
49139;SDS011;34959;49.310;8.646;2023-01-31T07:15:47;2.97;;;0.98;;
49139;SDS011;34959;49.310;8.646;2023-01-31T07:18:12;2.38;;;1.10;;
49139;SDS011;34959;49.310;8.646;2023-01-31T07:20:38;3.22;;;1.20;;
49139;SDS011;34959;49.310;8.646;2023-01-31T07:23:04;2.25;;;1.10;;
49139;SDS011;34959;49.310;8.646;2023-01-31T07:25:29;1.65;;;1.02;;
49139;SDS011;34959;49.310;8.646;2023-01-31T07:27:58;1.60;;;0.98;;
49139;SDS011;34959;49.310;8.646;2023-01-31T07:30:23;2.40;;;1.45;;
49139;SDS011;34959;49.310;8.646;2023-01-31T07:32:49;1.92;;;1.20;;
49139;SDS011;34959;49.310;8.646;2023-01-31T07:35:15;1.65;;;1.10;;
49139;SDS011;34959;49.310;8.646;2023-01-31T07:37:40;2.05;;;1.30;;
49139;SDS011;34959;49.310;8.646;2023-01-31T07:40:08;1.65;;;1.08;;
49139;SDS011;34959;49.310;8.646;2023-01-31T07:42:37;2.38;;;1.50;;
49139;SDS011;34959;49.310;8.646;2023-01-31T07:45:03;2.35;;;1.17;;
49139;SDS011;34959;49.310;8.646;2023-01-31T07:47:30;3.13;;;1.40;;
49139;SDS011;34959;49.310;8.646;2023-01-31T07:49:55;1.90;;;1.08;;
49139;SDS011;34959;49.310;8.646;2023-01-31T07:52:21;1.90;;;1.10;;
49139;SDS011;34959;49.310;8.646;2023-01-31T07:54:46;4.57;;;1.10;;
49139;SDS011;34959;49.310;8.646;2023-01-31T07:57:12;4.03;;;1.10;;
49139;SDS011;34959;49.310;8.646;2023-01-31T07:59:37;2.35;;;1.00;;
49139;SDS011;34959;49.310;8.646;2023-01-31T08:02:02;2.33;;;1.30;;
49139;SDS011;34959;49.310;8.646;2023-01-31T08:04:46;2.65;;;1.30;;
49139;SDS011;34959;49.310;8.646;2023-01-31T08:07:13;1.90;;;1.17;;
49139;SDS011;34959;49.310;8.646;2023-01-31T08:09:38;2.97;;;1.20;;
49139;SDS011;34959;49.310;8.646;2023-01-31T08:12:04;2.58;;;1.52;;
49139;SDS011;34959;49.310;8.646;2023-01-31T08:14:30;4.03;;;1.33;;
49139;SDS011;34959;49.310;8.646;2023-01-31T08:16:56;2.03;;;1.30;;
49139;SDS011;34959;49.310;8.646;2023-01-31T08:19:22;2.65;;;1.42;;
49139;SDS011;34959;49.310;8.646;2023-01-31T08:21:48;2.58;;;1.40;;
49139;SDS011;34959;49.310;8.646;2023-01-31T08:24:13;2.78;;;1.15;;
49139;SDS011;34959;49.310;8.646;2023-01-31T08:26:40;2.58;;;1.50;;
49139;SDS011;34959;49.310;8.646;2023-01-31T08:29:06;3.50;;;1.20;;
49139;SDS011;34959;49.310;8.646;2023-01-31T08:31:31;2.47;;;1.15;;
49139;SDS011;34959;49.310;8.646;2023-01-31T08:33:57;2.95;;;1.30;;
49139;SDS011;34959;49.310;8.646;2023-01-31T08:36:24;3.47;;;1.55;;
49139;SDS011;34959;49.310;8.646;2023-01-31T08:38:51;3.67;;;1.38;;
49139;SDS011;34959;49.310;8.646;2023-01-31T08:41:17;2.90;;;1.50;;
49139;SDS011;34959;49.310;8.646;2023-01-31T08:43:44;2.88;;;1.23;;
49139;SDS011;34959;49.310;8.646;2023-01-31T08:46:10;2.63;;;1.25;;
49139;SDS011;34959;49.310;8.646;2023-01-31T08:48:36;2.72;;;1.38;;
49139;SDS011;34959;49.310;8.646;2023-01-31T08:51:02;3.78;;;1.17;;
49139;SDS011;34959;49.310;8.646;2023-01-31T08:53:29;4.20;;;1.60;;
49139;SDS011;34959;49.310;8.646;2023-01-31T08:56:03;2.03;;;1.10;;
49139;SDS011;34959;49.310;8.646;2023-01-31T08:58:30;4.15;;;1.48;;
49139;SDS011;34959;49.310;8.646;2023-01-31T09:01:06;5.60;;;1.40;;
49139;SDS011;34959;49.310;8.646;2023-01-31T09:03:32;1.95;;;1.20;;
49139;SDS011;34959;49.310;8.646;2023-01-31T09:06:02;2.88;;;1.38;;
49139;SDS011;34959;49.310;8.646;2023-01-31T09:08:32;2.17;;;1.27;;
49139;SDS011;34959;49.310;8.646;2023-01-31T09:10:57;2.38;;;1.30;;
49139;SDS011;34959;49.310;8.646;2023-01-31T09:13:26;3.38;;;1.35;;
49139;SDS011;34959;49.310;8.646;2023-01-31T09:16:02;2.03;;;1.35;;
49139;SDS011;34959;49.310;8.646;2023-01-31T09:18:29;1.92;;;1.23;;
49139;SDS011;34959;49.310;8.646;2023-01-31T09:21:01;2.60;;;1.40;;
49139;SDS011;34959;49.310;8.646;2023-01-31T09:23:37;2.47;;;1.30;;
49139;SDS011;34959;49.310;8.646;2023-01-31T09:26:03;3.00;;;1.25;;
49139;SDS011;34959;49.310;8.646;2023-01-31T09:28:28;2.70;;;1.27;;
49139;SDS011;34959;49.310;8.646;2023-01-31T09:30:54;4.10;;;1.38;;
49139;SDS011;34959;49.310;8.646;2023-01-31T09:33:20;2.60;;;1.40;;
49139;SDS011;34959;49.310;8.646;2023-01-31T09:35:56;3.40;;;1.20;;
49139;SDS011;34959;49.310;8.646;2023-01-31T09:38:23;4.15;;;1.50;;
49139;SDS011;34959;49.310;8.646;2023-01-31T09:40:48;4.20;;;1.20;;
49139;SDS011;34959;49.310;8.646;2023-01-31T09:43:14;2.15;;;1.40;;
49139;SDS011;34959;49.310;8.646;2023-01-31T09:45:40;2.17;;;1.10;;
49139;SDS011;34959;49.310;8.646;2023-01-31T09:48:08;2.72;;;1.20;;
49139;SDS011;34959;49.310;8.646;2023-01-31T09:50:42;1.95;;;1.00;;
49139;SDS011;34959;49.310;8.646;2023-01-31T09:53:13;2.20;;;1.20;;
49139;SDS011;34959;49.310;8.646;2023-01-31T10:01:22;9.00;;;5.85;;
49139;SDS011;34959;49.310;8.646;2023-01-31T10:06:55;11.70;;;3.83;;
49139;SDS011;34959;49.310;8.646;2023-01-31T10:09:30;7.05;;;3.60;;
49139;SDS011;34959;49.310;8.646;2023-01-31T10:12:02;5.88;;;3.50;;
49139;SDS011;34959;49.310;8.646;2023-01-31T10:15:02;6.32;;;3.33;;
49139;SDS011;34959;49.310;8.646;2023-01-31T10:17:50;7.13;;;3.00;;
49139;SDS011;34959;49.310;8.646;2023-01-31T10:22:52;6.15;;;2.92;;
49139;SDS011;34959;49.310;8.646;2023-01-31T10:25:31;5.32;;;2.50;;
49139;SDS011;34959;49.310;8.646;2023-01-31T10:30:47;5.32;;;2.80;;
49139;SDS011;34959;49.310;8.646;2023-01-31T10:39:05;6.10;;;2.58;;
49139;SDS011;34959;49.310;8.646;2023-01-31T10:41:46;4.70;;;1.90;;
49139;SDS011;34959;49.310;8.646;2023-01-31T10:44:23;4.18;;;2.45;;
49139;SDS011;34959;49.310;8.646;2023-01-31T10:46:53;3.20;;;1.90;;
49139;SDS011;34959;49.310;8.646;2023-01-31T10:49:21;7.55;;;2.72;;
49139;SDS011;34959;49.310;8.646;2023-01-31T10:52:04;4.40;;;2.22;;
49139;SDS011;34959;49.310;8.646;2023-01-31T10:57:42;3.97;;;2.00;;
49139;SDS011;34959;49.310;8.646;2023-01-31T11:03:06;4.97;;;1.77;;
49139;SDS011;34959;49.310;8.646;2023-01-31T11:05:35;4.38;;;1.52;;
49139;SDS011;34959;49.310;8.646;2023-01-31T11:08:05;4.07;;;2.00;;
49139;SDS011;34959;49.310;8.646;2023-01-31T11:13:17;4.75;;;1.83;;
49139;SDS011;34959;49.310;8.646;2023-01-31T11:15:44;4.80;;;2.10;;
49139;SDS011;34959;49.310;8.646;2023-01-31T11:20:51;4.57;;;2.05;;
49139;SDS011;34959;49.310;8.646;2023-01-31T11:23:20;4.13;;;1.77;;
49139;SDS011;34959;49.310;8.646;2023-01-31T11:25:48;4.82;;;1.85;;
49139;SDS011;34959;49.310;8.646;2023-01-31T11:31:06;4.30;;;1.83;;
49139;SDS011;34959;49.310;8.646;2023-01-31T11:33:44;4.93;;;1.80;;
49139;SDS011;34959;49.310;8.646;2023-01-31T11:36:16;3.33;;;1.73;;
49139;SDS011;34959;49.310;8.646;2023-01-31T11:38:47;3.22;;;1.55;;
49139;SDS011;34959;49.310;8.646;2023-01-31T11:41:35;4.28;;;1.98;;
49139;SDS011;34959;49.310;8.646;2023-01-31T11:44:05;3.45;;;1.70;;
49139;SDS011;34959;49.310;8.646;2023-01-31T11:46:32;3.67;;;1.70;;
49139;SDS011;34959;49.310;8.646;2023-01-31T11:49:08;4.15;;;2.05;;
49139;SDS011;34959;49.310;8.646;2023-01-31T11:51:35;5.68;;;2.20;;
49139;SDS011;34959;49.310;8.646;2023-01-31T11:54:02;3.80;;;1.63;;
49139;SDS011;34959;49.310;8.646;2023-01-31T11:56:30;3.65;;;1.75;;
49139;SDS011;34959;49.310;8.646;2023-01-31T11:59:02;2.85;;;1.60;;
49139;SDS011;34959;49.310;8.646;2023-01-31T12:01:34;4.20;;;1.75;;
49139;SDS011;34959;49.310;8.646;2023-01-31T12:04:02;4.15;;;1.63;;
49139;SDS011;34959;49.310;8.646;2023-01-31T12:06:36;3.53;;;1.80;;
49139;SDS011;34959;49.310;8.646;2023-01-31T12:09:03;4.32;;;1.73;;
49139;SDS011;34959;49.310;8.646;2023-01-31T12:11:31;3.95;;;1.65;;
49139;SDS011;34959;49.310;8.646;2023-01-31T12:16:40;3.20;;;1.55;;
49139;SDS011;34959;49.310;8.646;2023-01-31T12:24:35;4.13;;;1.98;;
49139;SDS011;34959;49.310;8.646;2023-01-31T12:33:12;3.03;;;1.88;;
49139;SDS011;34959;49.310;8.646;2023-01-31T12:36:05;2.60;;;1.42;;
49139;SDS011;34959;49.310;8.646;2023-01-31T12:55:35;3.25;;;1.58;;
49139;SDS011;34959;49.310;8.646;2023-01-31T13:00:57;4.05;;;1.50;;
49139;SDS011;34959;49.310;8.646;2023-01-31T13:06:17;3.38;;;1.50;;
49139;SDS011;34959;49.310;8.646;2023-01-31T13:08:53;3.10;;;1.60;;
49139;SDS011;34959;49.310;8.646;2023-01-31T13:11:23;4.80;;;1.75;;
49139;SDS011;34959;49.310;8.646;2023-01-31T13:13:55;4.63;;;1.47;;
49139;SDS011;34959;49.310;8.646;2023-01-31T13:16:25;6.78;;;1.67;;
49139;SDS011;34959;49.310;8.646;2023-01-31T13:18:55;3.65;;;1.70;;
49139;SDS011;34959;49.310;8.646;2023-01-31T13:21:23;3.97;;;1.48;;
49139;SDS011;34959;49.310;8.646;2023-01-31T13:23:53;3.35;;;1.60;;
49139;SDS011;34959;49.310;8.646;2023-01-31T13:26:22;3.22;;;1.40;;
49139;SDS011;34959;49.310;8.646;2023-01-31T13:29:11;1.88;;;1.08;;
49139;SDS011;34959;49.310;8.646;2023-01-31T13:31:44;3.00;;;1.70;;
49139;SDS011;34959;49.310;8.646;2023-01-31T13:34:14;2.05;;;1.33;;
49139;SDS011;34959;49.310;8.646;2023-01-31T13:36:44;3.00;;;1.65;;
49139;SDS011;34959;49.310;8.646;2023-01-31T13:39:18;3.63;;;1.60;;
49139;SDS011;34959;49.310;8.646;2023-01-31T13:41:45;2.05;;;1.20;;
49139;SDS011;34959;49.310;8.646;2023-01-31T13:44:11;2.55;;;1.35;;
49139;SDS011;34959;49.310;8.646;2023-01-31T13:46:43;7.38;;;1.48;;
49139;SDS011;34959;49.310;8.646;2023-01-31T13:49:20;5.80;;;1.65;;
49139;SDS011;34959;49.310;8.646;2023-01-31T13:51:51;2.85;;;1.30;;
49139;SDS011;34959;49.310;8.646;2023-01-31T13:54:23;5.22;;;1.60;;
49139;SDS011;34959;49.310;8.646;2023-01-31T13:56:54;3.08;;;1.55;;
49139;SDS011;34959;49.310;8.646;2023-01-31T13:59:21;2.55;;;1.60;;
49139;SDS011;34959;49.310;8.646;2023-01-31T14:01:49;2.35;;;1.38;;
49139;SDS011;34959;49.310;8.646;2023-01-31T14:09:31;2.97;;;1.40;;
49139;SDS011;34959;49.310;8.646;2023-01-31T14:11:58;2.30;;;1.25;;
49139;SDS011;34959;49.310;8.646;2023-01-31T14:14:46;2.42;;;1.48;;
49139;SDS011;34959;49.310;8.646;2023-01-31T14:22:33;4.35;;;1.10;;
49139;SDS011;34959;49.310;8.646;2023-01-31T14:27:43;2.08;;;1.20;;
49139;SDS011;34959;49.310;8.646;2023-01-31T14:33:02;2.97;;;1.27;;
49139;SDS011;34959;49.310;8.646;2023-01-31T14:57:11;2.33;;;1.30;;
49139;SDS011;34959;49.310;8.646;2023-01-31T15:07:58;2.40;;;1.20;;
49139;SDS011;34959;49.310;8.646;2023-01-31T15:18:48;3.40;;;1.40;;
49139;SDS011;34959;49.310;8.646;2023-01-31T15:21:19;2.20;;;1.40;;
49139;SDS011;34959;49.310;8.646;2023-01-31T15:26:13;2.60;;;1.10;;
49139;SDS011;34959;49.310;8.646;2023-01-31T15:28:40;2.35;;;1.30;;
49139;SDS011;34959;49.310;8.646;2023-01-31T15:31:51;1.95;;;1.20;;
49139;SDS011;34959;49.310;8.646;2023-01-31T15:34:05;3.15;;;1.30;;
49139;SDS011;34959;49.310;8.646;2023-01-31T15:36:44;2.85;;;1.25;;
49139;SDS011;34959;49.310;8.646;2023-01-31T15:39:33;2.08;;;1.30;;
49139;SDS011;34959;49.310;8.646;2023-01-31T15:47:56;3.20;;;1.30;;
49139;SDS011;34959;49.310;8.646;2023-01-31T15:50:46;4.13;;;2.10;;
49139;SDS011;34959;49.310;8.646;2023-01-31T15:53:23;2.70;;;1.35;;
49139;SDS011;34959;49.310;8.646;2023-01-31T15:55:53;1.95;;;1.15;;
49139;SDS011;34959;49.310;8.646;2023-01-31T15:58:24;3.15;;;1.27;;
49139;SDS011;34959;49.310;8.646;2023-01-31T16:00:51;4.70;;;1.50;;
49139;SDS011;34959;49.310;8.646;2023-01-31T16:03:22;2.90;;;1.45;;
49139;SDS011;34959;49.310;8.646;2023-01-31T16:05:50;2.97;;;1.20;;
49139;SDS011;34959;49.310;8.646;2023-01-31T16:08:24;2.10;;;1.17;;
49139;SDS011;34959;49.310;8.646;2023-01-31T16:10:59;2.80;;;1.15;;
49139;SDS011;34959;49.310;8.646;2023-01-31T16:13:25;2.30;;;1.10;;
49139;SDS011;34959;49.310;8.646;2023-01-31T16:15:52;2.22;;;1.17;;
49139;SDS011;34959;49.310;8.646;2023-01-31T16:18:18;3.28;;;1.20;;
49139;SDS011;34959;49.310;8.646;2023-01-31T16:20:51;2.47;;;1.30;;
49139;SDS011;34959;49.310;8.646;2023-01-31T16:23:31;2.90;;;1.35;;
49139;SDS011;34959;49.310;8.646;2023-01-31T16:28:39;1.40;;;1.00;;
49139;SDS011;34959;49.310;8.646;2023-01-31T16:31:13;2.05;;;1.17;;
49139;SDS011;34959;49.310;8.646;2023-01-31T16:34:02;2.10;;;1.20;;
49139;SDS011;34959;49.310;8.646;2023-01-31T16:39:19;3.55;;;1.30;;
49139;SDS011;34959;49.310;8.646;2023-01-31T16:41:52;3.58;;;1.00;;
49139;SDS011;34959;49.310;8.646;2023-01-31T16:44:20;2.60;;;1.30;;
49139;SDS011;34959;49.310;8.646;2023-01-31T16:46:47;2.38;;;1.30;;
49139;SDS011;34959;49.310;8.646;2023-01-31T16:51:44;2.97;;;1.10;;
49139;SDS011;34959;49.310;8.646;2023-01-31T16:56:44;2.42;;;1.20;;
49139;SDS011;34959;49.310;8.646;2023-01-31T17:02:19;3.03;;;1.35;;
49139;SDS011;34959;49.310;8.646;2023-01-31T17:04:46;2.25;;;1.20;;
49139;SDS011;34959;49.310;8.646;2023-01-31T17:07:15;3.40;;;1.20;;
49139;SDS011;34959;49.310;8.646;2023-01-31T17:09:43;2.35;;;0.95;;
49139;SDS011;34959;49.310;8.646;2023-01-31T17:12:16;1.77;;;1.10;;
49139;SDS011;34959;49.310;8.646;2023-01-31T17:14:43;2.83;;;1.20;;
49139;SDS011;34959;49.310;8.646;2023-01-31T17:17:09;2.17;;;1.20;;
49139;SDS011;34959;49.310;8.646;2023-01-31T17:19:35;4.30;;;1.13;;
49139;SDS011;34959;49.310;8.646;2023-01-31T17:22:01;2.00;;;1.00;;
49139;SDS011;34959;49.310;8.646;2023-01-31T17:24:27;3.03;;;1.10;;
49139;SDS011;34959;49.310;8.646;2023-01-31T17:26:53;3.45;;;0.95;;
49139;SDS011;34959;49.310;8.646;2023-01-31T17:29:18;3.05;;;1.30;;
49139;SDS011;34959;49.310;8.646;2023-01-31T17:31:43;2.10;;;1.00;;
49139;SDS011;34959;49.310;8.646;2023-01-31T17:34:13;3.38;;;1.25;;
49139;SDS011;34959;49.310;8.646;2023-01-31T17:36:39;1.50;;;1.00;;
49139;SDS011;34959;49.310;8.646;2023-01-31T17:39:04;2.83;;;1.20;;
49139;SDS011;34959;49.310;8.646;2023-01-31T17:41:32;1.85;;;1.10;;
49139;SDS011;34959;49.310;8.646;2023-01-31T17:43:58;2.70;;;1.40;;
49139;SDS011;34959;49.310;8.646;2023-01-31T17:46:26;1.50;;;1.13;;
49139;SDS011;34959;49.310;8.646;2023-01-31T17:48:52;2.15;;;1.05;;
49139;SDS011;34959;49.310;8.646;2023-01-31T17:51:18;3.90;;;1.30;;
49139;SDS011;34959;49.310;8.646;2023-01-31T17:53:43;2.83;;;1.10;;
49139;SDS011;34959;49.310;8.646;2023-01-31T17:56:09;3.28;;;1.20;;
49139;SDS011;34959;49.310;8.646;2023-01-31T17:58:34;4.57;;;1.08;;